Time;durP1;ratioP1;P1;durP2;ratioP2;P2;SDS_P1;SDS_P2;PMS_P1;PMS_P2;Temp;Humidity;BMP_temperature;BMP_pressure;BME280_temperature;BME280_humidity;BME280_pressure;Samples;Min_cycle;Max_cycle;Signal;HPM_P1;HPM_P2
2021/05/17 00:01:55;;;;;;;0.65;0.50;;;;;;;29.20;21.27;97113.72;5095069;28;20433;-90
2021/05/17 00:04:34;;;;;;;0.50;0.47;;;;;;;29.11;21.39;97118.69;5093387;28;20530;-90
2021/05/17 00:07:08;;;;;;;0.50;0.40;;;;;;;29.14;21.22;97112.84;5094856;28;20115;-90
2021/05/17 00:09:35;;;;;;;3.20;0.50;;;;;;;29.20;21.00;97107.28;5095266;28;20036;-91
2021/05/17 00:12:03;;;;;;;0.52;0.47;;;;;;;29.27;21.02;97104.06;5094374;28;20028;-91
2021/05/17 00:14:30;;;;;;;0.55;0.40;;;;;;;29.12;21.38;97108.97;5095127;28;20044;-91
2021/05/17 00:16:56;;;;;;;0.55;0.40;;;;;;;29.23;21.27;97098.63;5086916;28;20048;-91
2021/05/17 00:19:23;;;;;;;1.17;0.47;;;;;;;29.29;21.12;97099.47;5094653;28;20106;-90
2021/05/17 00:21:50;;;;;;;0.57;0.35;;;;;;;29.39;20.64;97097.28;5094573;28;20048;-90
2021/05/17 00:24:17;;;;;;;0.30;0.30;;;;;;;29.69;20.44;97101.53;5089902;28;20101;-91
2021/05/17 00:26:44;;;;;;;0.63;0.40;;;;;;;30.06;19.96;97098.88;5094766;28;20032;-91
2021/05/17 00:29:10;;;;;;;0.93;0.40;;;;;;;29.86;20.19;97096.88;5094582;28;20475;-91
2021/05/17 00:31:38;;;;;;;0.20;0.20;;;;;;;29.71;20.33;97101.06;5095051;28;20561;-90
2021/05/17 00:34:06;;;;;;;0.52;0.30;;;;;;;29.81;20.15;97096.81;5093826;28;20040;-91
2021/05/17 00:36:34;;;;;;;0.40;0.40;;;;;;;29.75;20.73;97099.56;5093894;28;20085;-91
2021/05/17 00:39:03;;;;;;;0.30;0.30;;;;;;;29.70;20.63;97099.47;5092297;28;20840;-90
2021/05/17 00:41:30;;;;;;;0.30;0.30;;;;;;;29.59;20.75;97094.47;5086903;28;20044;-90
2021/05/17 00:43:56;;;;;;;0.35;0.25;;;;;;;29.82;20.34;97084.22;5091836;28;20111;-90
2021/05/17 00:46:24;;;;;;;0.60;0.38;;;;;;;29.46;20.65;97087.59;5115259;28;20081;-90
2021/05/17 00:48:51;;;;;;;0.40;0.30;;;;;;;29.29;20.91;97071.19;5106526;28;20028;-91
2021/05/17 00:51:18;;;;;;;0.40;0.40;;;;;;;29.32;20.83;97066.59;5094503;28;20043;-91
2021/05/17 00:53:45;;;;;;;0.50;0.30;;;;;;;29.28;21.09;97060.38;5094355;28;20076;-90
2021/05/17 00:56:12;;;;;;;1.08;0.57;;;;;;;29.32;21.18;97061.72;5084788;28;20077;-91
2021/05/17 00:58:38;;;;;;;0.43;0.40;;;;;;;29.53;20.78;97056.84;5093270;28;20063;-91
2021/05/17 01:01:05;;;;;;;0.60;0.40;;;;;;;29.16;21.39;97050.94;5092024;28;20036;-91
2021/05/17 01:03:32;;;;;;;0.60;0.30;;;;;;;29.07;21.39;97061.59;5089880;28;20047;-92
2021/05/17 01:06:01;;;;;;;0.45;0.30;;;;;;;29.08;21.59;97051.84;5093613;28;20039;-90
2021/05/17 01:08:44;;;;;;;0.75;0.35;;;;;;;28.98;21.65;97054.03;5092708;28;20040;-91
2021/05/17 01:11:11;;;;;;;0.98;0.40;;;;;;;28.71;22.22;97048.72;5091531;28;20040;-92
2021/05/17 01:13:41;;;;;;;0.35;0.30;;;;;;;28.69;22.12;97045.63;5093558;28;20028;-92
2021/05/17 01:16:07;;;;;;;0.35;0.30;;;;;;;28.16;22.51;97045.75;5093200;28;20035;-90
2021/05/17 01:18:33;;;;;;;0.45;0.30;;;;;;;28.70;22.04;97047.97;5093580;28;20518;-91
2021/05/17 01:21:00;;;;;;;0.30;0.30;;;;;;;28.99;21.91;97046.31;5092285;28;20031;-91
2021/05/17 01:25:55;;;;;;;0.20;0.20;;;;;;;29.59;20.85;97048.44;5092745;28;20044;-91
2021/05/17 01:28:28;;;;;;;0.30;0.20;;;;;;;29.09;21.30;97048.53;5091279;28;20127;-91
2021/05/17 01:30:57;;;;;;;0.50;0.38;;;;;;;29.27;21.40;97051.09;5086570;28;20514;-91
2021/05/17 01:33:23;;;;;;;0.40;0.40;;;;;;;29.38;21.27;97050.50;5092817;28;20039;-91
2021/05/17 01:35:51;;;;;;;0.35;0.30;;;;;;;29.33;21.20;97051.97;5092270;28;20040;-91
2021/05/17 01:38:18;;;;;;;0.30;0.30;;;;;;;29.46;21.13;97048.00;5092010;28;20053;-91
2021/05/17 01:40:46;;;;;;;0.57;0.40;;;;;;;29.49;21.05;97047.78;5076892;28;20071;-91
2021/05/17 01:43:14;;;;;;;0.50;0.40;;;;;;;29.07;21.55;97045.41;5088954;28;20028;-90
2021/05/17 01:45:41;;;;;;;0.68;0.40;;;;;;;29.35;21.38;97038.13;5093041;28;20486;-91
2021/05/17 01:48:07;;;;;;;0.45;0.25;;;;;;;28.23;22.69;97045.34;5093097;28;20036;-91
2021/05/17 01:50:35;;;;;;;0.82;0.40;;;;;;;28.37;22.44;97046.59;5092089;28;20036;-90
2021/05/17 01:53:02;;;;;;;1.05;0.40;;;;;;;28.36;22.45;97047.88;5092031;28;20111;-91
2021/05/17 01:55:28;;;;;;;0.40;0.30;;;;;;;28.52;22.02;97036.09;5092806;28;20036;-91
2021/05/17 01:58:11;;;;;;;0.50;0.40;;;;;;;27.83;23.09;97042.28;5092845;28;20044;-91
2021/05/17 02:00:40;;;;;;;0.25;0.25;;;;;;;27.85;23.38;97034.91;5085021;28;20056;-91
2021/05/17 02:03:08;;;;;;;0.70;0.40;;;;;;;27.73;23.64;97033.13;5090709;28;20032;-90
2021/05/17 02:05:35;;;;;;;0.40;0.40;;;;;;;27.83;23.17;97034.59;5091185;28;20028;-91
2021/05/17 02:08:03;;;;;;;0.40;0.30;;;;;;;28.18;22.84;97029.09;5093763;28;20081;-92
2021/05/17 02:10:29;;;;;;;0.25;0.20;;;;;;;28.59;22.40;97035.72;5090876;28;20039;-91
2021/05/17 02:12:58;;;;;;;0.85;0.20;;;;;;;29.01;21.76;97032.50;5089069;28;20043;-90
2021/05/17 02:15:25;;;;;;;0.30;0.30;;;;;;;29.15;21.59;97029.59;5091115;28;20383;-91
2021/05/17 02:18:05;;;;;;;1.15;0.20;;;;;;;29.40;21.40;97040.25;5091805;28;20036;-91
2021/05/17 02:20:36;;;;;;;0.30;0.20;;;;;;;29.80;20.81;97050.00;5091618;28;20373;-91
2021/05/17 02:23:03;;;;;;;0.73;0.20;;;;;;;30.28;20.31;97048.16;5092661;28;20566;-91
2021/05/17 02:25:30;;;;;;;0.50;0.30;;;;;;;30.36;20.25;97045.69;5090737;28;20127;-92
2021/05/17 02:27:57;;;;;;;0.35;0.30;;;;;;;30.23;20.67;97031.09;5089630;28;20040;-92
2021/05/17 02:30:25;;;;;;;0.57;0.40;;;;;;;30.08;20.82;97028.41;5087561;28;20074;-91
2021/05/17 02:32:53;;;;;;;0.38;0.30;;;;;;;29.59;20.80;97026.59;5089737;28;20443;-91
2021/05/17 02:35:21;;;;;;;0.50;0.30;;;;;;;29.43;21.53;97030.75;5090810;28;20119;-91
2021/05/17 02:37:48;;;;;;;0.65;0.32;;;;;;;29.41;21.11;97026.84;5090421;28;20144;-91
2021/05/17 02:40:15;;;;;;;0.43;0.38;;;;;;;29.29;21.45;97014.63;5092829;28;20539;-91
2021/05/17 02:42:49;;;;;;;0.30;0.30;;;;;;;29.02;21.92;97026.34;5091308;28;20034;-92
2021/05/17 02:45:18;;;;;;;0.40;0.25;;;;;;;29.67;21.24;97018.41;5089536;28;20815;-91
2021/05/17 02:47:45;;;;;;;0.20;0.20;;;;;;;29.78;21.12;97010.84;5079184;28;20046;-91
2021/05/17 02:50:14;;;;;;;0.47;0.25;;;;;;;29.67;21.10;97018.41;5090182;28;20479;-91
2021/05/17 02:52:44;;;;;;;0.40;0.30;;;;;;;29.52;21.33;97020.56;5093049;28;20034;-91
2021/05/17 02:55:14;;;;;;;0.20;0.20;;;;;;;29.55;21.53;97020.34;5091621;28;20031;-91
2021/05/17 02:57:42;;;;;;;0.30;0.20;;;;;;;29.97;21.01;97029.06;5091513;28;20414;-91
2021/05/17 03:00:11;;;;;;;0.40;0.40;;;;;;;29.69;21.02;97024.34;5086963;28;20454;-91
2021/05/17 03:03:01;;;;;;;0.20;0.20;;;;;;;30.15;20.96;97019.47;5091967;28;20043;-92
2021/05/17 03:05:29;;;;;;;0.43;0.43;;;;;;;30.58;20.26;97020.34;5091135;28;20391;-92
2021/05/17 03:08:06;;;;;;;0.20;0.20;;;;;;;30.56;20.46;97023.72;5091026;28;20036;-92
2021/05/17 03:10:35;;;;;;;0.22;0.20;;;;;;;30.12;20.85;97002.69;5091676;28;20040;-92
2021/05/17 03:13:10;;;;;;;0.45;0.40;;;;;;;29.70;21.34;97012.56;5090112;28;20040;-92
2021/05/17 03:15:37;;;;;;;0.32;0.28;;;;;;;29.13;22.41;97003.06;5090812;28;20060;-91
2021/05/17 03:18:04;;;;;;;0.38;0.30;;;;;;;28.73;22.48;97010.25;5091163;28;20036;-92
2021/05/17 03:20:31;;;;;;;0.30;0.20;;;;;;;29.18;22.19;97008.84;5091264;28;20024;-92
2021/05/17 03:22:58;;;;;;;0.30;0.22;;;;;;;30.08;20.94;97019.91;5091136;28;20064;-92
2021/05/17 03:25:30;;;;;;;0.20;0.20;;;;;;;30.15;20.94;97027.97;5084660;28;20059;-94
2021/05/17 03:27:56;;;;;;;0.28;0.20;;;;;;;29.85;21.18;97023.81;5092659;28;20095;-92
2021/05/17 03:30:22;;;;;;;0.30;0.30;;;;;;;29.38;21.82;97031.44;5093917;28;20471;-92
2021/05/17 03:32:49;;;;;;;0.20;0.20;;;;;;;29.49;21.75;97038.53;5094756;28;20065;-92
2021/05/17 03:35:16;;;;;;;0.45;0.30;;;;;;;29.56;21.32;97038.09;5094537;28;20031;-93
2021/05/17 03:37:43;;;;;;;0.68;0.30;;;;;;;30.18;21.36;97040.34;5095539;28;20036;-92
2021/05/17 03:40:11;;;;;;;0.20;0.20;;;;;;;30.47;21.23;97040.13;5095013;28;20036;-92
2021/05/17 03:42:38;;;;;;;0.45;0.20;;;;;;;31.10;20.31;97049.34;5095446;28;20065;-94
2021/05/17 03:45:06;;;;;;;0.75;0.20;;;;;;;31.55;19.73;97047.53;5094861;28;20054;-92
2021/05/17 03:47:33;;;;;;;0.20;0.20;;;;;;;31.33;20.43;97045.34;5094904;28;20383;-92
2021/05/17 03:49:59;;;;;;;0.73;0.28;;;;;;;31.17;20.69;97043.97;5095448;28;20085;-92
2021/05/17 03:52:25;;;;;;;0.30;0.20;;;;;;;31.17;20.83;97048.88;5096196;28;20032;-92
2021/05/17 03:54:52;;;;;;;0.40;0.13;;;;;;;31.57;20.18;97053.47;5095247;28;20040;-92
2021/05/17 03:57:18;;;;;;;0.20;0.17;;;;;;;31.81;19.53;97051.75;5095201;28;20503;-91
2021/05/17 03:59:45;;;;;;;0.20;0.20;;;;;;;31.63;20.35;97048.59;5094608;28;20036;-92
2021/05/17 04:02:18;;;;;;;0.20;0.20;;;;;;;31.18;20.42;97044.75;5087585;28;20405;-92
2021/05/17 04:04:55;;;;;;;0.22;0.20;;;;;;;31.56;19.57;97043.41;5086025;28;20372;-91
2021/05/17 04:15:23;;;;;;;0.45;0.38;;;;;;;32.36;19.51;97051.13;5094563;28;20079;-91
2021/05/17 04:17:49;;;;;;;0.30;0.30;;;;;;;31.63;20.37;97055.03;5095115;28;20512;-91
2021/05/17 04:20:15;;;;;;;0.25;0.20;;;;;;;30.98;21.58;97048.50;5092935;28;20404;-91
2021/05/17 04:22:42;;;;;;;0.20;0.20;;;;;;;30.73;21.95;97057.84;5094570;28;20054;-93
2021/05/17 04:25:09;;;;;;;0.55;0.10;;;;;;;31.26;21.01;97048.66;5094604;28;20521;-95
2021/05/17 04:27:35;;;;;;;0.20;0.20;;;;;;;31.86;20.39;97051.00;5099220;28;20491;-95
2021/05/17 04:30:03;;;;;;;0.20;0.20;;;;;;;31.79;20.00;97050.72;5096079;28;20031;-93
2021/05/17 04:32:29;;;;;;;0.20;0.10;;;;;;;31.19;20.96;97051.97;5094235;28;20185;-92
2021/05/17 04:34:55;;;;;;;0.20;0.20;;;;;;;31.23;20.97;97055.34;5093252;28;20032;-94
2021/05/17 04:37:21;;;;;;;0.52;0.30;;;;;;;31.54;20.47;97058.13;5093870;28;20044;-94
2021/05/17 04:39:47;;;;;;;0.22;0.17;;;;;;;32.00;19.78;97061.38;5083531;28;20377;-93
2021/05/17 04:42:13;;;;;;;0.20;0.20;;;;;;;32.45;19.32;97065.06;5092709;28;20062;-93
2021/05/17 04:44:40;;;;;;;0.45;0.20;;;;;;;32.84;19.19;97065.09;5093628;28;20032;-94
2021/05/17 04:47:06;;;;;;;0.10;0.10;;;;;;;33.07;18.84;97080.88;5090421;28;20035;-94
2021/05/17 04:49:32;;;;;;;0.57;0.20;;;;;;;32.94;18.66;97080.59;5093184;28;20024;-93
2021/05/17 04:51:58;;;;;;;0.30;0.30;;;;;;;32.60;18.99;97079.06;5093744;28;20051;-95
2021/05/17 04:54:24;;;;;;;4.25;1.70;;;;;;;32.45;18.92;97072.81;5092828;28;20028;-92
2021/05/17 04:56:50;;;;;;;1.02;0.73;;;;;;;31.84;19.83;97070.59;5093965;28;20429;-94
2021/05/17 04:59:16;;;;;;;0.52;0.43;;;;;;;31.56;20.16;97072.56;5088182;28;20111;-94
2021/05/17 05:01:42;;;;;;;0.30;0.30;;;;;;;31.80;20.07;97075.75;5092367;28;20124;-93
2021/05/17 05:04:08;;;;;;;0.90;0.57;;;;;;;31.45;20.94;97069.69;5090570;28;20437;-93
2021/05/17 05:06:34;;;;;;;0.40;0.30;;;;;;;31.40;20.93;97076.06;5093535;28;20025;-92
2021/05/17 05:09:00;;;;;;;0.20;0.20;;;;;;;31.94;20.09;97083.28;5092058;28;20044;-93
2021/05/17 05:11:26;;;;;;;1.30;0.40;;;;;;;31.86;19.92;97079.38;5093613;28;20035;-91
2021/05/17 05:13:52;;;;;;;0.70;0.45;;;;;;;31.59;20.19;97077.22;5093606;28;20044;-93
2021/05/17 05:16:18;;;;;;;0.47;0.47;;;;;;;31.40;20.72;97064.72;5091071;28;20024;-91
2021/05/17 05:18:44;;;;;;;0.35;0.30;;;;;;;31.26;20.89;97068.50;5089866;28;20028;-90
2021/05/17 05:21:10;;;;;;;0.80;0.38;;;;;;;31.08;21.12;97069.72;5092614;28;20033;-91
2021/05/17 05:23:36;;;;;;;0.52;0.52;;;;;;;31.07;20.84;97065.31;5091235;28;20066;-93
2021/05/17 05:26:36;;;;;;;0.52;0.30;;;;;;;31.30;21.07;97069.03;5091554;28;20448;-92
2021/05/17 05:29:11;;;;;;;0.28;0.22;;;;;;;32.05;20.09;97071.22;5085125;28;20036;-91
2021/05/17 05:31:44;;;;;;;0.22;0.20;;;;;;;32.42;19.97;97063.25;5088267;28;20430;-91
2021/05/17 05:34:10;;;;;;;2.40;0.30;;;;;;;32.36;20.30;97062.50;5091617;28;20036;-92
2021/05/17 05:36:36;;;;;;;0.52;0.38;;;;;;;32.22;20.86;97066.34;5090804;28;20032;-88
2021/05/17 05:39:03;;;;;;;0.40;0.38;;;;;;;32.03;20.22;97063.22;5093215;28;20062;-90
2021/05/17 05:41:29;;;;;;;0.30;0.20;;;;;;;31.88;20.85;97059.03;5091765;28;20032;-91
2021/05/17 05:43:56;;;;;;;1.08;0.40;;;;;;;32.02;21.12;97055.97;5087325;28;20200;-94
2021/05/17 05:46:22;;;;;;;0.32;0.20;;;;;;;31.75;21.15;97050.19;5096555;28;20138;-91
2021/05/17 05:48:48;;;;;;;0.40;0.40;;;;;;;31.37;21.06;97057.22;5089490;28;20513;-93
2021/05/17 05:51:16;;;;;;;0.30;0.25;;;;;;;31.34;21.14;97047.66;5091140;28;20031;-91
2021/05/17 05:53:43;;;;;;;0.90;0.30;;;;;;;31.86;20.36;97039.63;5090680;28;20077;-91
2021/05/17 05:56:09;;;;;;;0.85;0.57;;;;;;;32.32;20.54;97050.63;5090995;28;20035;-94
2021/05/17 05:58:35;;;;;;;0.70;0.30;;;;;;;32.41;20.72;97044.69;5094036;28;20102;-95
2021/05/17 06:01:02;;;;;;;0.20;0.20;;;;;;;32.66;21.62;97037.97;5084653;28;20068;-94
2021/05/17 06:03:28;;;;;;;0.45;0.35;;;;;;;33.12;20.48;97042.31;5085236;28;20392;-94
2021/05/17 06:05:54;;;;;;;0.30;0.30;;;;;;;33.34;19.73;97034.53;5092438;28;20078;-93
2021/05/17 06:08:20;;;;;;;1.27;0.38;;;;;;;33.19;20.07;97038.94;5083218;28;20051;-92
2021/05/17 06:10:47;;;;;;;0.20;0.20;;;;;;;33.04;20.99;97050.63;5084616;28;20056;-92
2021/05/17 06:13:13;;;;;;;0.40;0.40;;;;;;;33.25;21.16;97043.34;5084300;28;20028;-92
2021/05/17 06:15:43;;;;;;;0.80;0.30;;;;;;;33.65;20.21;97035.47;5077431;28;20036;-92
2021/05/17 06:18:10;;;;;;;0.63;0.32;;;;;;;33.57;20.02;97032.38;5085954;28;20044;-92
2021/05/17 06:20:37;;;;;;;0.20;0.20;;;;;;;33.79;20.64;97037.19;5084117;28;20032;-93
2021/05/17 06:23:03;;;;;;;0.85;0.40;;;;;;;33.64;20.93;97022.50;5088610;28;20093;-93
2021/05/17 06:25:30;;;;;;;0.30;0.30;;;;;;;33.20;21.12;97035.59;5077889;28;20523;-94
2021/05/17 06:27:57;;;;;;;0.40;0.30;;;;;;;33.35;20.97;97018.97;5079348;28;20047;-94
2021/05/17 06:30:24;;;;;;;0.55;0.30;;;;;;;33.70;20.51;97017.56;5080640;28;20033;-93
2021/05/17 06:32:51;;;;;;;0.40;0.40;;;;;;;33.87;20.74;97015.41;5085420;28;20111;-93
2021/05/17 06:35:24;;;;;;;0.30;0.20;;;;;;;34.25;20.82;97019.31;5083195;28;20024;-94
2021/05/17 06:37:50;;;;;;;0.20;0.20;;;;;;;34.51;20.71;97006.16;5080118;28;20044;-93
2021/05/17 06:40:16;;;;;;;0.20;0.20;;;;;;;34.91;19.46;97006.59;5087652;28;20037;-93
2021/05/17 06:42:43;;;;;;;0.40;0.40;;;;;;;35.14;19.17;97007.94;5081143;28;20075;-94
2021/05/17 06:45:09;;;;;;;0.40;0.30;;;;;;;35.42;19.12;97002.69;5088771;28;20123;-94
2021/05/17 06:47:36;;;;;;;0.47;0.40;;;;;;;35.25;19.03;97000.03;5079857;28;20077;-95
2021/05/17 06:50:05;;;;;;;0.20;0.20;;;;;;;34.23;19.53;97002.75;5081763;28;20036;-94
2021/05/17 06:52:31;;;;;;;0.28;0.25;;;;;;;33.28;20.63;97002.44;5087044;28;20063;-94
2021/05/17 06:54:59;;;;;;;0.22;0.22;;;;;;;31.36;22.74;96987.59;5082740;28;20028;-93
2021/05/17 07:00:16;;;;;;;0.30;0.25;;;;;;;30.15;22.86;96988.31;5083562;28;20035;-95
2021/05/17 07:02:45;;;;;;;0.30;0.30;;;;;;;30.89;23.96;96979.88;5082842;28;20024;-93
2021/05/17 07:05:13;;;;;;;0.28;0.28;;;;;;;31.39;23.02;96987.34;5082065;28;20373;-94
2021/05/17 07:12:53;;;;;;;0.45;0.20;;;;;;;34.59;19.92;96986.41;5085007;28;20051;-95
2021/05/17 07:15:19;;;;;;;0.50;0.20;;;;;;;33.25;20.40;96985.66;5082012;28;20412;-94
2021/05/17 07:17:45;;;;;;;0.20;0.20;;;;;;;31.36;22.44;96984.75;5085133;28;20384;-94
2021/05/17 07:20:14;;;;;;;0.85;0.30;;;;;;;32.84;20.58;96993.25;5083754;28;20035;-96
2021/05/17 07:25:25;;;;;;;1.35;0.30;;;;;;;33.89;19.53;96979.38;5086447;28;20129;-95
2021/05/17 07:27:52;;;;;;;1.20;0.40;;;;;;;34.13;19.62;96973.03;5088115;28;20491;-95
2021/05/17 07:30:18;;;;;;;0.15;0.15;;;;;;;33.95;19.71;96971.59;5087741;28;20028;-94
2021/05/17 07:32:44;;;;;;;0.20;0.15;;;;;;;32.96;20.03;96974.84;5081605;28;20510;-96
2021/05/17 07:35:11;;;;;;;0.22;0.20;;;;;;;33.91;20.05;96964.63;5088620;28;20040;-95
2021/05/17 07:37:38;;;;;;;0.20;0.17;;;;;;;34.35;19.19;96967.19;5080826;28;20027;-96
2021/05/17 07:40:05;;;;;;;0.10;0.10;;;;;;;34.38;17.97;96968.19;5089308;28;20117;-94
2021/05/17 07:42:31;;;;;;;0.25;0.20;;;;;;;34.86;17.88;96961.78;5093924;28;20036;-95
2021/05/17 07:44:57;;;;;;;0.32;0.20;;;;;;;34.89;17.44;96966.44;5089278;28;20040;-95
2021/05/17 07:47:23;;;;;;;0.17;0.10;;;;;;;34.03;18.27;96961.19;5082427;28;20029;-95
2021/05/17 07:49:53;;;;;;;0.77;0.15;;;;;;;34.56;17.77;96962.63;5088835;28;20040;-96
2021/05/17 07:52:20;;;;;;;0.95;0.20;;;;;;;34.12;18.47;96957.25;5084567;28;20108;-95
2021/05/17 07:54:46;;;;;;;0.28;0.10;;;;;;;35.07;19.01;96955.09;5084500;28;20028;-96
2021/05/17 07:57:13;;;;;;;0.20;0.10;;;;;;;35.60;17.53;96961.97;5089174;28;20535;-95
2021/05/17 07:59:40;;;;;;;0.20;0.20;;;;;;;36.32;17.67;96957.25;5089415;28;20082;-95
2021/05/17 08:02:06;;;;;;;0.32;0.10;;;;;;;35.57;17.70;96957.34;5083077;28;20032;-95
2021/05/17 08:04:32;;;;;;;0.10;0.10;;;;;;;34.31;18.48;96943.13;5085256;28;20543;-95
2021/05/17 08:06:58;;;;;;;0.20;0.20;;;;;;;35.03;18.66;96943.19;5088190;28;20665;-95
2021/05/17 08:09:25;;;;;;;0.55;0.20;;;;;;;34.73;18.06;96951.00;5089766;28;20024;-96
2021/05/17 08:11:51;;;;;;;0.10;0.10;;;;;;;34.26;18.88;96941.09;5084434;28;20063;-96
2021/05/17 08:14:19;;;;;;;0.20;0.20;;;;;;;35.19;17.72;96930.81;5085284;28;20068;-96
2021/05/17 08:16:46;;;;;;;0.20;0.20;;;;;;;36.15;17.70;96934.69;5094867;28;20116;-95
2021/05/17 08:19:12;;;;;;;0.10;0.10;;;;;;;36.38;16.59;96927.28;5089978;28;20023;-95
2021/05/17 08:21:39;;;;;;;0.20;0.10;;;;;;;36.49;16.95;96926.34;5088242;28;20040;-96
2021/05/17 08:24:05;;;;;;;0.10;0.10;;;;;;;36.50;16.70;96927.88;5083246;28;20484;-96
2021/05/17 08:26:32;;;;;;;0.17;0.10;;;;;;;36.19;16.40;96935.16;5085558;28;20032;-96
2021/05/17 08:28:58;;;;;;;0.10;0.10;;;;;;;36.45;15.99;96934.47;5094399;28;20440;-96
2021/05/17 08:31:25;;;;;;;0.40;0.10;;;;;;;36.65;16.38;96937.47;5085923;28;20065;-96
2021/05/17 08:33:51;;;;;;;0.85;0.17;;;;;;;36.29;16.74;96944.84;5090662;28;20479;-96
2021/05/17 08:36:18;;;;;;;2.45;0.20;;;;;;;36.86;17.09;96937.59;5094337;28;20032;-96
2021/05/17 08:38:44;;;;;;;0.60;0.20;;;;;;;36.52;16.30;96934.59;5092527;28;20067;-95
2021/05/17 08:41:14;;;;;;;0.50;0.38;;;;;;;36.59;16.26;96931.09;5095443;28;20051;-96
2021/05/17 08:43:42;;;;;;;0.70;0.30;;;;;;;35.91;17.44;96929.06;5092899;28;20024;-96
2021/05/17 08:46:10;;;;;;;0.10;0.10;;;;;;;34.90;18.27;96930.88;5085890;28;20054;-96
2021/05/17 08:48:46;;;;;;;2.92;0.28;;;;;;;34.64;17.52;96934.25;5090530;28;20037;-95
2021/05/17 08:51:14;;;;;;;0.22;0.13;;;;;;;34.33;18.36;96931.97;5087339;28;20479;-95
2021/05/17 08:53:40;;;;;;;0.10;0.10;;;;;;;35.36;17.18;96933.44;5095563;28;20070;-96
2021/05/17 08:56:08;;;;;;;0.00;0.00;;;;;;;33.92;19.03;96926.28;5091876;28;20032;-95
2021/05/17 08:58:34;;;;;;;0.20;0.20;;;;;;;33.29;19.64;96918.63;5092669;28;20032;-94
2021/05/17 09:01:04;;;;;;;0.65;0.20;;;;;;;34.14;18.27;96934.72;5087030;28;20093;-93
2021/05/17 09:03:31;;;;;;;0.13;0.10;;;;;;;35.13;17.87;96930.09;5081878;28;20040;-94
2021/05/17 09:06:05;;;;;;;1.35;0.40;;;;;;;35.69;16.64;96929.38;5084467;28;20040;-93
2021/05/17 09:08:31;;;;;;;0.20;0.20;;;;;;;34.59;18.14;96935.88;5089597;28;20031;-93
2021/05/17 09:10:57;;;;;;;0.25;0.10;;;;;;;33.99;18.11;96934.28;5086352;28;20054;-92
2021/05/17 09:13:23;;;;;;;0.20;0.20;;;;;;;34.67;18.06;96933.19;5084901;28;20043;-93
2021/05/17 09:15:54;;;;;;;0.63;0.10;;;;;;;35.28;17.13;96938.22;5087723;28;20040;-93
2021/05/17 09:18:28;;;;;;;0.45;0.17;;;;;;;35.36;17.35;96937.06;5080211;28;20036;-93
2021/05/17 09:21:03;;;;;;;0.13;0.13;;;;;;;35.88;17.21;96941.56;5089813;28;20364;-93
2021/05/17 09:23:34;;;;;;;0.65;0.20;;;;;;;36.34;16.73;96935.38;5082475;28;20383;-93
2021/05/17 09:26:08;;;;;;;0.15;0.15;;;;;;;36.47;15.75;96935.47;5085479;28;20111;-93
2021/05/17 09:28:46;;;;;;;2.05;0.30;;;;;;;36.29;16.35;96938.38;5089542;28;20505;-89
2021/05/17 09:31:16;;;;;;;0.68;0.40;;;;;;;36.29;16.51;96950.56;5086653;28;20028;-89
2021/05/17 09:33:55;;;;;;;0.88;0.30;;;;;;;35.72;16.64;96951.94;5085395;28;20024;-89
2021/05/17 09:36:41;;;;;;;0.30;0.30;;;;;;;35.89;17.52;96945.97;5094945;28;20036;-89
2021/05/17 09:39:10;;;;;;;0.75;0.22;;;;;;;36.38;17.29;96955.09;5092079;28;20084;-89
2021/05/17 09:41:46;;;;;;;0.30;0.20;;;;;;;35.93;17.15;96950.06;5088037;28;20020;-89
2021/05/17 09:44:24;;;;;;;1.13;0.30;;;;;;;35.84;17.24;96961.13;5082798;28;20124;-89
2021/05/17 09:47:04;;;;;;;0.77;0.30;;;;;;;35.00;17.75;96949.19;5084713;28;20051;-89
2021/05/17 09:49:35;;;;;;;1.45;0.17;;;;;;;34.21;18.84;96950.44;5089541;28;20024;-89
2021/05/17 09:52:16;;;;;;;0.30;0.28;;;;;;;33.91;19.14;96944.69;5090144;28;20093;-89
2021/05/17 09:54:54;;;;;;;0.20;0.20;;;;;;;33.73;19.68;96934.72;5091564;28;20045;-88
2021/05/17 09:57:23;;;;;;;0.50;0.30;;;;;;;33.45;20.17;96931.22;5084927;28;20133;-89
2021/05/17 09:59:51;;;;;;;0.52;0.40;;;;;;;34.00;19.59;96933.72;5086561;28;20027;-88
2021/05/17 10:02:47;;;;;;;1.20;0.45;;;;;;;33.97;18.56;96943.34;5088731;28;20036;-88
2021/05/17 10:05:25;;;;;;;0.93;0.40;;;;;;;33.79;19.42;96940.38;5082847;28;20040;-89
2021/05/17 10:07:58;;;;;;;0.50;0.40;;;;;;;33.77;18.97;96940.13;5093428;28;20043;-94
2021/05/17 10:10:27;;;;;;;0.40;0.40;;;;;;;33.14;19.41;96935.25;5083140;28;20098;-92
2021/05/17 10:12:56;;;;;;;0.38;0.32;;;;;;;33.07;20.73;96935.78;5081592;28;20116;-94
2021/05/17 10:15:24;;;;;;;0.40;0.40;;;;;;;33.15;21.26;96925.44;5085744;28;20510;-93
2021/05/17 10:17:51;;;;;;;0.82;0.40;;;;;;;32.54;21.93;96933.31;5091713;28;20499;-94
2021/05/17 10:20:21;;;;;;;0.60;0.40;;;;;;;32.37;22.21;96933.31;5078645;28;20036;-93
2021/05/17 10:22:48;;;;;;;0.50;0.40;;;;;;;32.67;21.65;96925.06;5084087;28;20036;-95
2021/05/17 10:25:22;;;;;;;1.50;0.60;;;;;;;32.82;21.34;96919.81;5084008;28;20352;-92
2021/05/17 10:27:51;;;;;;;0.50;0.40;;;;;;;32.70;21.76;96921.94;5089148;28;20039;-93
2021/05/17 10:30:33;;;;;;;3.10;0.40;;;;;;;32.05;22.49;96932.06;5089136;28;20032;-93
2021/05/17 10:33:05;;;;;;;0.50;0.50;;;;;;;32.94;21.67;96923.41;5089143;28;20040;-92
2021/05/17 10:35:33;;;;;;;4.22;0.40;;;;;;;32.81;21.79;96918.28;5085018;28;20028;-95
2021/05/17 10:38:27;;;;;;;0.47;0.40;;;;;;;32.83;20.37;96910.00;5083944;28;20036;-96
2021/05/17 10:41:02;;;;;;;0.30;0.30;;;;;;;32.99;20.25;96912.03;5088572;28;20059;-95
2021/05/17 10:46:34;;;;;;;0.60;0.30;;;;;;;32.86;20.45;96908.94;5078489;28;20039;-96
2021/05/17 10:46:47;;;;;;;0.50;0.40;;;;;;;32.94;19.82;96920.56;5082761;28;20101;-95
2021/05/17 10:49:34;;;;;;;0.28;0.25;;;;;;;33.20;19.70;96913.25;5089638;28;20032;-95
2021/05/17 10:52:06;;;;;;;0.20;0.20;;;;;;;33.12;19.87;96914.31;5080738;28;20487;-95
2021/05/17 10:54:41;;;;;;;0.22;0.22;;;;;;;33.06;20.20;96913.56;5089409;28;20032;-96
2021/05/17 10:57:31;;;;;;;0.20;0.20;;;;;;;33.22;19.62;96910.66;5088436;28;20028;-96
2021/05/17 11:02:44;;;;;;;0.50;0.20;;;;;;;34.10;18.97;96902.13;5085187;28;20059;-95
2021/05/17 11:05:20;;;;;;;0.63;0.30;;;;;;;33.55;19.51;96906.88;5088156;28;20032;-95
2021/05/17 11:07:51;;;;;;;0.10;0.10;;;;;;;32.83;20.04;96907.16;5085883;28;20032;-95
2021/05/17 11:10:25;;;;;;;0.43;0.22;;;;;;;32.11;20.99;96915.03;5090962;28;20484;-94
2021/05/17 11:12:58;;;;;;;0.90;0.22;;;;;;;32.36;20.85;96909.06;5085992;28;20477;-95
2021/05/17 11:15:56;;;;;;;0.68;0.20;;;;;;;32.67;20.57;96908.00;5091150;28;20047;-94
2021/05/17 11:18:30;;;;;;;0.95;0.20;;;;;;;32.66;20.59;96907.22;5089160;28;20040;-95
2021/05/17 11:21:10;;;;;;;0.57;0.40;;;;;;;32.85;20.99;96912.31;5092378;28;20032;-94
2021/05/17 11:23:36;;;;;;;0.90;0.40;;;;;;;32.95;20.77;96910.75;5088312;28;20387;-94
2021/05/17 11:31:36;;;;;;;1.35;0.50;;;;;;;33.28;20.62;96916.31;5091216;28;20040;-94
2021/05/17 11:34:02;;;;;;;0.65;0.38;;;;;;;33.11;20.54;96919.25;5080864;28;20440;-93
2021/05/17 11:36:35;;;;;;;2.80;0.75;;;;;;;33.58;20.68;96924.97;5079505;28;20054;-93
2021/05/17 11:39:17;;;;;;;0.90;0.65;;;;;;;33.83;20.63;96918.84;5082468;28;20040;-93
2021/05/17 11:41:58;;;;;;;1.77;0.57;;;;;;;33.81;20.53;96915.00;5083108;28;20035;-94
2021/05/17 11:44:40;;;;;;;2.22;1.17;;;;;;;33.71;20.99;96925.16;5084424;28;20039;-94
2021/05/17 11:47:09;;;;;;;0.90;0.70;;;;;;;33.31;21.19;96915.25;5083946;28;20037;-93
2021/05/17 11:49:38;;;;;;;1.38;0.75;;;;;;;32.75;22.01;96915.47;5085538;28;20028;-92
2021/05/17 11:52:08;;;;;;;2.08;1.23;;;;;;;33.06;21.95;96922.09;5087760;28;20036;-94
2021/05/17 11:54:40;;;;;;;4.00;0.93;;;;;;;32.07;22.76;96926.63;5090964;28;20031;-93
2021/05/17 11:57:09;;;;;;;0.73;0.40;;;;;;;31.79;22.91;96926.59;5092901;28;20024;-94
2021/05/17 11:59:36;;;;;;;3.88;0.68;;;;;;;31.51;23.04;96922.91;5086277;28;20073;-95
2021/05/17 12:02:06;;;;;;;1.25;0.50;;;;;;;31.87;23.47;96921.97;5089824;28;20043;-96
2021/05/17 12:04:34;;;;;;;0.30;0.30;;;;;;;32.15;22.11;96922.00;5088525;28;20399;-93
2021/05/17 12:07:06;;;;;;;0.80;0.55;;;;;;;31.56;22.86;96921.38;5086815;28;20031;-94
2021/05/17 12:09:40;;;;;;;0.55;0.47;;;;;;;31.45;23.50;96907.97;5087407;28;20096;-94
2021/05/17 12:12:12;;;;;;;1.58;0.40;;;;;;;31.49;23.32;96904.84;5086361;28;20023;-94
2021/05/17 12:14:45;;;;;;;0.85;0.52;;;;;;;31.90;23.07;96912.38;5089064;28;20077;-95